Time;durP1;ratioP1;P1;durP2;ratioP2;P2;SDS_P1;SDS_P2;PMS_P1;PMS_P2;Temp;Humidity;BMP_temperature;BMP_pressure;BME280_temperature;BME280_humidity;BME280_pressure;Samples;Min_cycle;Max_cycle;Signal;HPM_P1;HPM_P2
2023/10/19 00:00:44;;;;;;;2.78;1.13;;;10.70;95.40;;;;;;4905128;29;20055;-81
2023/10/19 00:03:15;;;;;;;3.58;2.05;;;10.70;95.40;;;;;;4904731;29;20052;-82
2023/10/19 00:05:43;;;;;;;1.70;0.97;;;10.80;95.50;;;;;;4904735;29;20428;-82
2023/10/19 00:08:23;;;;;;;2.38;1.30;;;10.80;95.50;;;;;;4892166;29;20040;-82
2023/10/19 00:11:11;;;;;;;2.80;1.30;;;10.80;95.50;;;;;;4920775;29;20044;-82
2023/10/19 00:13:39;;;;;;;2.60;1.48;;;10.80;95.50;;;;;;4916888;29;20083;-82
2023/10/19 00:16:53;;;;;;;4.15;1.90;;;10.80;95.60;;;;;;4901874;29;20382;-86
2023/10/19 00:19:00;;;;;;;3.05;1.65;;;10.90;95.60;;;;;;4908987;29;20551;-86
2023/10/19 00:21:27;;;;;;;4.13;2.47;;;10.90;95.60;;;;;;4895731;29;20056;-86
2023/10/19 00:23:57;;;;;;;2.88;1.80;;;10.90;95.70;;;;;;4917598;29;20138;-86
2023/10/19 00:26:26;;;;;;;3.33;1.60;;;11.00;95.70;;;;;;4911396;29;20126;-85
2023/10/19 00:28:57;;;;;;;4.20;2.33;;;11.00;95.70;;;;;;4923348;29;20069;-86
2023/10/19 00:31:27;;;;;;;2.78;1.75;;;11.00;95.80;;;;;;4895979;29;20474;-86
2023/10/19 00:33:57;;;;;;;3.88;2.20;;;11.00;95.80;;;;;;4902380;29;20135;-86
2023/10/19 00:36:25;;;;;;;4.10;2.85;;;11.10;95.80;;;;;;4896380;29;20060;-85
2023/10/19 00:38:53;;;;;;;3.60;2.25;;;11.10;95.90;;;;;;4909270;29;20058;-85
2023/10/19 00:41:29;;;;;;;3.40;2.25;;;11.10;95.90;;;;;;4895759;29;20075;-86
2023/10/19 00:44:10;;;;;;;5.55;2.63;;;11.10;96.00;;;;;;4901119;29;20048;-86
2023/10/19 00:49:14;;;;;;;4.25;2.22;;;11.10;96.00;;;;;;4903440;29;20092;-86
2023/10/19 00:54:40;;;;;;;3.78;1.88;;;11.20;96.10;;;;;;4910087;29;20151;-85
2023/10/19 00:57:11;;;;;;;2.42;1.27;;;11.20;96.10;;;;;;4905286;29;20054;-86
2023/10/19 00:59:53;;;;;;;4.23;1.60;;;11.30;96.10;;;;;;4910132;29;20058;-85
2023/10/19 01:05:05;;;;;;;3.92;1.65;;;11.30;96.10;;;;;;4919685;29;20052;-86
2023/10/19 01:07:37;;;;;;;3.20;1.80;;;11.30;96.20;;;;;;4904314;29;20505;-86
2023/10/19 01:10:06;;;;;;;2.47;1.40;;;11.30;96.20;;;;;;4903017;29;20071;-86
2023/10/19 01:12:38;;;;;;;2.58;1.10;;;11.30;96.20;;;;;;4904371;29;20086;-85
2023/10/19 01:17:59;;;;;;;2.88;1.42;;;11.40;96.30;;;;;;4911188;29;20052;-85
2023/10/19 01:28:47;;;;;;;3.65;1.73;;;11.50;96.40;;;;;;4909606;29;20052;-85
2023/10/19 01:34:04;;;;;;;3.30;1.55;;;11.50;96.40;;;;;;4918824;29;20131;-85
2023/10/19 01:36:41;;;;;;;2.47;1.25;;;11.50;96.40;;;;;;4895209;29;20132;-82
2023/10/19 01:39:12;;;;;;;2.78;1.48;;;11.50;96.50;;;;;;4902785;29;20048;-81
2023/10/19 01:41:42;;;;;;;3.92;1.40;;;11.50;96.50;;;;;;4900102;29;20134;-82
2023/10/19 01:44:13;;;;;;;3.13;2.00;;;11.50;96.50;;;;;;4917371;29;20147;-82
2023/10/19 01:46:43;;;;;;;2.72;1.42;;;11.50;96.50;;;;;;4924043;29;20051;-82
2023/10/19 01:49:11;;;;;;;2.95;1.60;;;11.60;96.60;;;;;;4898344;29;20059;-82
2023/10/19 01:51:39;;;;;;;2.45;1.38;;;11.60;96.60;;;;;;4918284;29;20419;-82
2023/10/19 01:54:11;;;;;;;2.60;1.55;;;11.60;96.60;;;;;;4899880;29;20048;-82
2023/10/19 01:56:42;;;;;;;3.22;1.60;;;11.60;96.60;;;;;;4906341;29;20052;-81
2023/10/19 01:59:09;;;;;;;3.60;1.45;;;11.60;96.60;;;;;;4909720;29;20047;-82
2023/10/19 02:01:37;;;;;;;4.20;2.58;;;11.60;96.60;;;;;;4894976;29;20059;-82
2023/10/19 02:04:08;;;;;;;2.50;1.17;;;11.70;96.60;;;;;;4906592;29;20146;-82
2023/10/19 02:06:40;;;;;;;3.55;1.95;;;11.70;96.70;;;;;;4921697;29;20063;-82
2023/10/19 02:09:17;;;;;;;5.55;1.83;;;11.70;96.70;;;;;;4902013;29;20108;-82
2023/10/19 02:11:47;;;;;;;3.58;1.67;;;11.70;96.70;;;;;;4907242;29;20139;-82
2023/10/19 02:14:20;;;;;;;3.28;1.65;;;11.80;96.70;;;;;;4902028;29;20044;-82
2023/10/19 02:16:52;;;;;;;2.85;1.50;;;11.80;96.70;;;;;;4923996;29;20051;-82
2023/10/19 02:19:21;;;;;;;4.20;2.47;;;11.80;96.70;;;;;;4909243;29;20055;-82
2023/10/19 02:22:08;;;;;;;6.72;3.78;;;11.90;96.70;;;;;;4896080;29;20112;-81
2023/10/19 02:24:38;;;;;;;4.80;2.50;;;11.90;96.80;;;;;;4900476;29;20064;-82
2023/10/19 02:27:06;;;;;;;4.85;2.58;;;11.90;96.80;;;;;;4923041;29;20448;-82
2023/10/19 02:29:38;;;;;;;4.47;2.43;;;12.00;96.80;;;;;;4905747;29;20058;-82
2023/10/19 02:32:07;;;;;;;4.45;2.50;;;12.00;96.80;;;;;;4908917;29;20506;-82
2023/10/19 02:34:34;;;;;;;3.63;2.05;;;12.00;96.80;;;;;;4902062;29;20485;-82
2023/10/19 02:37:02;;;;;;;3.85;2.08;;;12.00;96.80;;;;;;4909259;29;20581;-82
2023/10/19 02:39:30;;;;;;;3.45;1.80;;;12.00;96.90;;;;;;4895907;29;20142;-82
2023/10/19 02:42:01;;;;;;;3.17;1.70;;;12.00;97.10;;;;;;4901305;29;20063;-82
2023/10/19 02:44:30;;;;;;;3.28;1.63;;;12.10;96.90;;;;;;4905902;29;20052;-82
2023/10/19 02:47:05;;;;;;;4.43;2.00;;;12.10;97.00;;;;;;4887746;29;20048;-82
2023/10/19 02:49:38;;;;;;;3.90;1.73;;;12.10;97.00;;;;;;4908411;29;20065;-82
2023/10/19 02:52:07;;;;;;;3.60;1.60;;;12.10;97.30;;;;;;4924716;29;20471;-86
2023/10/19 02:54:34;;;;;;;2.90;1.40;;;12.10;97.30;;;;;;4913798;29;20047;-85
2023/10/19 02:57:06;;;;;;;4.07;1.63;;;12.10;97.10;;;;;;4917826;29;20043;-85
2023/10/19 02:59:34;;;;;;;2.45;1.30;;;12.20;97.10;;;;;;4894247;29;20044;-85
2023/10/19 03:04:36;;;;;;;2.05;0.73;;;12.20;97.10;;;;;;4922046;29;20047;-85
2023/10/19 03:07:04;;;;;;;2.20;1.10;;;12.20;97.10;;;;;;4907281;29;20050;-85
2023/10/19 03:09:37;;;;;;;2.13;0.85;;;12.20;97.10;;;;;;4896070;29;20457;-85
2023/10/19 03:12:10;;;;;;;2.53;1.10;;;12.20;97.10;;;;;;4918438;29;20044;-85
2023/10/19 03:14:39;;;;;;;1.77;0.82;;;12.30;97.10;;;;;;4921846;29;20095;-86
2023/10/19 03:17:08;;;;;;;3.00;1.85;;;12.30;97.20;;;;;;4908586;29;20079;-85
2023/10/19 03:19:38;;;;;;;2.10;1.00;;;12.30;97.20;;;;;;4896863;29;20048;-85
2023/10/19 03:22:09;;;;;;;2.60;1.08;;;12.30;97.50;;;;;;4891543;29;20040;-85
2023/10/19 03:27:16;;;;;;;1.92;1.15;;;12.30;97.20;;;;;;4920271;29;20111;-85
2023/10/19 03:29:59;;;;;;;2.38;1.25;;;12.30;97.20;;;;;;4896935;29;20056;-85
2023/10/19 03:32:32;;;;;;;3.05;1.30;;;12.30;97.30;;;;;;4902174;29;20056;-86
2023/10/19 03:34:59;;;;;;;2.38;0.88;;;12.30;97.30;;;;;;4905624;29;20048;-85
2023/10/19 03:37:31;;;;;;;2.78;1.40;;;12.30;97.30;;;;;;4900497;29;20095;-85
2023/10/19 03:39:59;;;;;;;2.63;0.82;;;12.30;97.30;;;;;;4908515;29;20044;-85
2023/10/19 03:42:29;;;;;;;3.53;1.60;;;12.30;97.30;;;;;;4872742;29;20067;-85
2023/10/19 03:44:57;;;;;;;2.63;1.10;;;12.30;97.30;;;;;;4912715;29;20079;-85
2023/10/19 03:47:34;;;;;;;2.25;1.40;;;12.40;97.30;;;;;;4914271;29;20415;-85
2023/10/19 03:50:06;;;;;;;1.55;0.80;;;12.40;97.30;;;;;;4879990;29;20141;-85
2023/10/19 03:52:38;;;;;;;1.92;1.08;;;12.40;97.30;;;;;;4902853;29;20068;-82
2023/10/19 03:55:11;;;;;;;1.88;0.88;;;12.40;97.30;;;;;;4895637;29;20052;-81
2023/10/19 03:57:46;;;;;;;2.13;0.80;;;12.50;97.40;;;;;;4909346;29;20135;-81
2023/10/19 04:00:24;;;;;;;2.03;0.82;;;12.50;97.40;;;;;;4917512;29;20068;-81
2023/10/19 04:02:58;;;;;;;1.80;0.77;;;12.50;97.40;;;;;;4917295;29;20134;-82
2023/10/19 04:05:26;;;;;;;2.50;0.80;;;12.50;97.40;;;;;;4886053;29;20465;-82
2023/10/19 04:07:55;;;;;;;2.00;0.93;;;12.50;97.40;;;;;;4903839;29;20071;-81
2023/10/19 04:13:09;;;;;;;1.90;0.90;;;12.50;97.40;;;;;;4920269;29;20059;-82
2023/10/19 04:15:41;;;;;;;1.92;0.95;;;12.40;97.50;;;;;;4891759;29;20055;-82
2023/10/19 04:18:08;;;;;;;1.42;0.65;;;12.40;97.50;;;;;;4889687;29;20052;-81
2023/10/19 04:23:17;;;;;;;2.10;0.82;;;12.50;97.60;;;;;;4920001;29;20485;-82
2023/10/19 04:25:47;;;;;;;1.77;0.75;;;12.50;97.60;;;;;;4876104;29;20047;-82
2023/10/19 04:28:14;;;;;;;1.35;0.88;;;12.50;97.60;;;;;;4894155;29;20056;-82
2023/10/19 04:30:41;;;;;;;1.05;0.50;;;12.50;97.60;;;;;;4888407;29;20492;-81
2023/10/19 04:33:11;;;;;;;1.42;0.50;;;12.60;97.60;;;;;;4914508;29;20138;-82
2023/10/19 04:35:41;;;;;;;0.88;0.40;;;12.60;97.60;;;;;;4916815;29;20491;-82
2023/10/19 04:38:08;;;;;;;2.13;0.68;;;12.60;97.60;;;;;;4920000;29;20131;-81
2023/10/19 04:40:35;;;;;;;1.30;0.60;;;12.60;97.60;;;;;;4906393;29;20058;-82
2023/10/19 04:43:05;;;;;;;0.90;0.60;;;12.70;97.60;;;;;;4916765;29;20048;-81
2023/10/19 04:45:32;;;;;;;1.10;0.50;;;12.70;97.60;;;;;;4867694;29;20497;-82
2023/10/19 04:47:59;;;;;;;2.20;0.70;;;12.70;97.70;;;;;;4900709;29;20134;-82
2023/10/19 04:50:26;;;;;;;0.70;0.35;;;12.70;97.70;;;;;;4913181;29;20057;-82
2023/10/19 04:52:53;;;;;;;1.75;0.70;;;12.70;97.70;;;;;;4911327;29;20063;-85
2023/10/19 04:55:21;;;;;;;1.63;0.68;;;12.70;97.70;;;;;;4898320;29;20045;-85
2023/10/19 04:57:49;;;;;;;3.13;0.70;;;12.80;97.70;;;;;;4897512;29;20052;-85
2023/10/19 05:00:20;;;;;;;1.30;0.55;;;12.80;97.70;;;;;;4910093;29;20131;-85
2023/10/19 05:02:47;;;;;;;2.08;0.50;;;12.80;97.70;;;;;;4882819;29;20131;-85
2023/10/19 06:54:29;;;;;;;0.90;0.30;;;12.40;98.00;;;;;;5463101;24;20489;-82
2023/10/19 06:57:05;;;;;;;0.87;0.20;;;12.40;98.00;;;;;;5591567;24;21326;31
2023/10/19 06:59:33;;;;;;;0.75;0.22;;;12.40;98.10;;;;;;4836904;24;20288;-85
2023/10/19 07:02:01;;;;;;;0.90;0.38;;;12.40;98.10;;;;;;4785844;29;20055;-86
2023/10/19 07:04:29;;;;;;;2.70;0.50;;;12.50;98.10;;;;;;4785672;29;20046;-86
2023/10/19 07:06:57;;;;;;;1.30;0.50;;;12.50;98.10;;;;;;4804366;29;20040;-85
2023/10/19 07:09:24;;;;;;;1.85;0.47;;;12.60;98.10;;;;;;4807237;29;20088;-85
2023/10/19 07:11:54;;;;;;;1.80;0.60;;;12.70;98.20;;;;;;4806657;29;20053;-85
2023/10/19 07:14:22;;;;;;;1.35;0.50;;;12.70;98.10;;;;;;4782742;29;20051;-86
2023/10/19 07:16:51;;;;;;;1.30;0.45;;;12.80;98.20;;;;;;4790815;29;20104;-86
2023/10/19 07:19:19;;;;;;;1.52;0.70;;;12.80;98.10;;;;;;4822612;29;20055;-85
2023/10/19 07:21:48;;;;;;;1.10;0.55;;;12.80;98.10;;;;;;4806631;29;20099;-85
2023/10/19 07:24:18;;;;;;;1.52;0.47;;;12.90;98.10;;;;;;4791393;29;20104;-86
2023/10/19 07:27:04;;;;;;;1.05;0.40;;;13.00;98.10;;;;;;4796616;29;20084;-86
2023/10/19 07:29:33;;;;;;;1.10;0.45;;;13.00;98.10;;;;;;4803321;29;20047;-85
2023/10/19 07:32:00;;;;;;;1.85;0.77;;;13.10;98.10;;;;;;4775687;29;20047;-85
2023/10/19 07:34:30;;;;;;;2.55;0.75;;;13.10;98.10;;;;;;4778868;29;20030;-86
2023/10/19 07:36:59;;;;;;;1.05;0.47;;;13.20;98.10;;;;;;4815461;29;20058;-86
2023/10/19 07:39:29;;;;;;;2.20;0.68;;;13.20;98.10;;;;;;4775640;29;20823;-86
2023/10/19 07:41:56;;;;;;;1.60;0.90;;;13.20;98.10;;;;;;4824500;29;20138;-86
2023/10/19 07:44:24;;;;;;;1.63;0.70;;;13.20;98.10;;;;;;4789333;29;20138;-85
2023/10/19 07:46:51;;;;;;;1.13;0.55;;;13.30;98.10;;;;;;4807030;29;20507;-86
2023/10/19 07:49:18;;;;;;;1.77;1.10;;;13.30;98.10;;;;;;4792316;29;20119;-85
2023/10/19 07:51:47;;;;;;;3.05;0.60;;;13.30;98.10;;;;;;4776842;29;20050;-86
2023/10/19 07:54:14;;;;;;;1.88;0.55;;;13.30;98.10;;;;;;4795841;29;20066;-86
2023/10/19 07:56:41;;;;;;;1.98;0.93;;;13.40;98.10;;;;;;4791902;29;20411;-82
2023/10/19 07:59:08;;;;;;;1.17;0.63;;;13.40;98.10;;;;;;4815050;29;20137;-82
2023/10/19 08:01:36;;;;;;;1.77;0.40;;;13.50;98.10;;;;;;4854769;29;20070;-86
2023/10/19 08:11:16;;;;;;;1.15;0.32;;;13.70;98.10;;;;;;5530434;24;21105;-75
2023/10/19 08:13:44;;;;;;;1.23;0.50;;;13.70;98.00;;;;;;4739252;30;20068;-76
2023/10/19 08:16:12;;;;;;;1.25;0.30;;;13.70;98.00;;;;;;4759039;30;20135;-76
2023/10/19 08:18:39;;;;;;;1.02;0.50;;;13.80;98.00;;;;;;4752100;30;20162;-74
2023/10/19 08:21:07;;;;;;;1.52;0.40;;;13.80;98.00;;;;;;4725983;30;20083;-76
2023/10/19 08:23:34;;;;;;;0.47;0.20;;;13.90;98.00;;;;;;4742250;30;20060;-76
2023/10/19 08:26:05;;;;;;;2.22;0.40;;;13.90;98.00;;;;;;4731256;30;20571;-77
2023/10/19 08:28:32;;;;;;;2.40;0.32;;;14.00;98.00;;;;;;4751887;30;20080;-75
2023/10/19 08:31:00;;;;;;;1.70;0.20;;;14.00;98.00;;;;;;4717239;30;20808;-85
2023/10/19 08:33:29;;;;;;;2.60;0.30;;;14.10;98.00;;;;;;4716983;30;20395;-78
2023/10/19 08:35:57;;;;;;;0.52;0.20;;;14.20;98.00;;;;;;4738573;30;20105;-76
2023/10/19 08:38:25;;;;;;;1.48;0.30;;;14.20;98.00;;;;;;4748889;30;20060;-76
2023/10/19 08:40:54;;;;;;;3.78;0.30;;;14.30;98.00;;;;;;4742124;30;20044;-76
2023/10/19 08:43:21;;;;;;;1.17;0.40;;;14.30;98.00;;;;;;4717181;30;20119;-86
2023/10/19 08:45:49;;;;;;;1.77;0.30;;;14.40;98.00;;;;;;4734439;30;20056;-81
2023/10/19 08:48:16;;;;;;;1.05;0.25;;;14.40;97.90;;;;;;4745143;30;20498;-79
2023/10/19 08:50:44;;;;;;;1.35;0.20;;;14.50;97.90;;;;;;4730959;30;20069;-79
2023/10/19 08:53:14;;;;;;;1.17;0.30;;;14.50;98.00;;;;;;4728514;30;20059;-86
2023/10/19 08:55:41;;;;;;;1.52;0.32;;;14.60;98.00;;;;;;4738820;30;20106;-83
2023/10/19 08:58:16;;;;;;;1.17;0.30;;;14.60;97.90;;;;;;4728102;30;20421;-79
2023/10/19 09:00:56;;;;;;;2.17;0.30;;;14.70;98.20;;;;;;4735724;30;20513;-80
2023/10/19 09:03:25;;;;;;;0.98;0.30;;;14.80;97.90;;;;;;4733842;30;20077;-78
2023/10/19 09:05:54;;;;;;;0.95;0.20;;;14.80;97.80;;;;;;4739083;30;20049;-81
2023/10/19 09:08:22;;;;;;;1.42;0.30;;;14.90;97.80;;;;;;4722304;30;20524;-80
2023/10/19 09:10:53;;;;;;;1.67;0.30;;;15.00;97.80;;;;;;4744241;30;20056;-80
2023/10/19 09:13:22;;;;;;;0.95;0.30;;;15.10;97.90;;;;;;4736002;30;20061;-80
2023/10/19 09:15:55;;;;;;;3.03;0.40;;;15.10;97.70;;;;;;4741609;30;20057;-81
2023/10/19 09:18:27;;;;;;;3.60;0.38;;;15.20;97.70;;;;;;4728067;30;20049;-80
2023/10/19 09:21:01;;;;;;;1.40;0.28;;;15.20;97.70;;;;;;4716474;30;20041;-79
2023/10/19 09:23:30;;;;;;;1.77;0.40;;;15.30;97.70;;;;;;4732700;30;20106;-79
2023/10/19 09:26:07;;;;;;;1.80;0.40;;;15.30;97.70;;;;;;4721998;30;20130;-80
2023/10/19 09:28:36;;;;;;;3.33;0.60;;;15.30;97.70;;;;;;4737851;30;20581;-78
2023/10/19 09:31:04;;;;;;;1.98;0.50;;;15.30;97.80;;;;;;4744858;30;20056;-78
2023/10/19 09:33:36;;;;;;;2.15;0.50;;;15.30;97.80;;;;;;4742126;30;20116;-78
2023/10/19 09:36:12;;;;;;;3.20;0.70;;;15.30;97.80;;;;;;4730436;30;20402;-77
2023/10/19 09:38:51;;;;;;;4.05;0.60;;;15.40;97.80;;;;;;4716108;30;20049;-79
2023/10/19 09:41:27;;;;;;;1.23;0.50;;;15.40;97.80;;;;;;4728230;30;20152;-82
2023/10/19 09:44:02;;;;;;;2.92;0.63;;;15.50;97.80;;;;;;4732357;30;20107;-82
2023/10/19 09:46:32;;;;;;;3.20;0.70;;;15.60;97.70;;;;;;4728697;30;20524;-83
2023/10/19 09:48:59;;;;;;;1.35;0.60;;;15.70;97.60;;;;;;4742383;30;20140;-86
2023/10/19 09:51:27;;;;;;;2.30;0.85;;;15.80;97.80;;;;;;4721455;30;20053;-83
2023/10/19 09:54:19;;;;;;;2.97;1.00;;;15.90;97.60;;;;;;4712607;30;20387;-84
2023/10/19 09:57:01;;;;;;;2.05;0.45;;;16.00;97.50;;;;;;4742894;30;20045;-81
2023/10/19 09:59:44;;;;;;;3.80;0.68;;;16.00;97.50;;;;;;4730739;30;20068;-80
2023/10/19 10:02:12;;;;;;;2.17;0.50;;;16.10;97.40;;;;;;4742383;30;20067;-84
2023/10/19 10:04:44;;;;;;;1.98;0.60;;;16.20;97.40;;;;;;4731557;30;20057;-81
2023/10/19 10:07:12;;;;;;;1.33;0.55;;;16.30;97.30;;;;;;4717411;30;20045;-81
2023/10/19 10:09:44;;;;;;;3.53;0.98;;;16.30;97.30;;;;;;4763210;30;20497;-81
2023/10/19 10:12:25;;;;;;;1.90;0.60;;;16.40;97.30;;;;;;4738554;30;20092;-81
2023/10/19 10:15:01;;;;;;;2.67;0.60;;;16.50;97.20;;;;;;4754048;30;20055;-82
2023/10/19 10:17:29;;;;;;;2.10;0.82;;;16.60;97.20;;;;;;4739766;30;20060;-81
2023/10/19 10:20:17;;;;;;;1.67;0.50;;;16.60;97.20;;;;;;4772659;29;20497;-87
2023/10/19 10:22:45;;;;;;;5.05;0.70;;;16.70;97.20;;;;;;4779709;30;20087;-88
2023/10/19 10:25:30;;;;;;;2.33;0.95;;;16.70;97.20;;;;;;4742085;30;20387;-82
2023/10/19 10:27:58;;;;;;;2.60;0.70;;;16.70;97.10;;;;;;4758769;30;20492;-82
2023/10/19 10:30:25;;;;;;;2.70;0.75;;;16.80;97.20;;;;;;4767978;30;20120;-82
2023/10/19 10:32:55;;;;;;;2.67;0.60;;;16.90;97.20;;;;;;4748225;30;20056;-82
2023/10/19 10:35:41;;;;;;;3.58;0.80;;;16.90;97.10;;;;;;4756349;30;20071;-88
2023/10/19 10:38:13;;;;;;;2.30;0.60;;;17.00;97.10;;;;;;4746440;30;20060;-81
2023/10/19 10:40:49;;;;;;;2.42;0.80;;;17.00;97.10;;;;;;4754477;30;20048;-81
2023/10/19 10:43:18;;;;;;;2.75;0.73;;;17.00;97.10;;;;;;4755506;30;20072;-81
2023/10/19 10:45:45;;;;;;;2.63;0.80;;;17.00;97.10;;;;;;4761264;30;20087;-81
2023/10/19 10:48:18;;;;;;;1.73;0.60;;;17.10;97.40;;;;;;4747119;30;20432;-80
2023/10/19 10:50:46;;;;;;;2.13;0.52;;;17.20;97.10;;;;;;4768268;30;20060;-80
2023/10/19 10:53:17;;;;;;;3.72;0.80;;;17.20;97.10;;;;;;4763491;30;20095;-81
2023/10/19 10:55:44;;;;;;;2.88;0.93;;;17.20;97.00;;;;;;4736340;30;20056;-81
2023/10/19 10:58:18;;;;;;;2.97;0.90;;;17.20;97.00;;;;;;4751865;30;20059;-81
2023/10/19 11:00:51;;;;;;;1.83;0.73;;;17.30;97.10;;;;;;4753485;30;20051;-81
2023/10/19 11:03:19;;;;;;;4.05;0.70;;;17.30;97.10;;;;;;4765898;30;20059;-81
2023/10/19 11:05:46;;;;;;;1.88;0.50;;;17.30;97.00;;;;;;4755810;30;20106;-81
2023/10/19 11:08:20;;;;;;;1.77;0.73;;;17.30;97.00;;;;;;4741037;30;20049;-81
2023/10/19 11:10:48;;;;;;;2.63;0.63;;;17.30;97.00;;;;;;4768039;30;20080;-81
2023/10/19 11:13:22;;;;;;;4.22;0.60;;;17.40;97.10;;;;;;4739018;30;20092;-81
2023/10/19 11:15:52;;;;;;;2.42;0.50;;;17.40;97.10;;;;;;4720618;30;20190;-80
2023/10/19 11:18:45;;;;;;;1.92;0.50;;;17.40;97.00;;;;;;4736169;30;20048;-81
2023/10/19 11:21:18;;;;;;;2.67;0.40;;;17.50;97.00;;;;;;4724458;30;20048;-85
2023/10/19 11:23:47;;;;;;;3.08;0.60;;;17.50;97.00;;;;;;4737359;30;20552;-83
2023/10/19 11:26:19;;;;;;;4.78;0.60;;;17.60;96.90;;;;;;4717899;30;20077;-83
2023/10/19 11:28:53;;;;;;;2.38;0.60;;;17.80;96.80;;;;;;4735207;30;20052;-82
2023/10/19 11:31:24;;;;;;;3.42;0.70;;;17.80;96.70;;;;;;4753179;30;20074;-81
2023/10/19 11:33:53;;;;;;;3.23;0.50;;;17.90;96.60;;;;;;4725280;30;20057;-85
2023/10/19 11:36:22;;;;;;;5.32;0.63;;;18.00;96.60;;;;;;4759085;30;20163;-83
2023/10/19 11:38:52;;;;;;;2.85;0.60;;;17.90;96.60;;;;;;4748805;30;20135;-84
2023/10/19 11:41:20;;;;;;;1.77;0.50;;;17.90;96.60;;;;;;4749518;30;20575;-82
2023/10/19 11:43:48;;;;;;;3.17;0.70;;;17.90;96.60;;;;;;4752968;30;20056;-83
2023/10/19 11:46:18;;;;;;;4.00;0.70;;;17.90;96.60;;;;;;4752555;30;20082;-80
2023/10/19 11:48:45;;;;;;;2.55;0.60;;;18.00;96.60;;;;;;4731042;30;20061;-82
2023/10/19 11:51:13;;;;;;;1.70;0.60;;;18.00;96.60;;;;;;4722897;30;20060;-83
2023/10/19 11:53:42;;;;;;;4.10;0.90;;;18.10;96.60;;;;;;4728958;30;20562;-83
2023/10/19 11:56:12;;;;;;;2.80;0.90;;;18.10;96.50;;;;;;4732247;30;20053;-82
2023/10/19 11:58:41;;;;;;;3.28;1.00;;;18.20;96.40;;;;;;4733570;30;20593;-82
2023/10/19 12:01:19;;;;;;;5.93;1.92;;;18.20;96.40;;;;;;4727838;30;20072;-82
2023/10/19 12:03:48;;;;;;;4.65;0.95;;;18.10;96.50;;;;;;4721598;30;20053;-83
2023/10/19 12:06:18;;;;;;;4.80;1.15;;;18.00;96.60;;;;;;4724728;30;20482;-83
2023/10/19 12:08:46;;;;;;;4.30;1.23;;;18.00;96.70;;;;;;4736666;30;20060;-85
2023/10/19 12:11:18;;;;;;;3.65;1.50;;;18.10;96.70;;;;;;4728885;30;20052;-82
2023/10/19 12:13:46;;;;;;;2.75;1.05;;;18.20;96.60;;;;;;4693643;30;20061;-83
2023/10/19 12:16:15;;;;;;;2.38;0.93;;;18.30;96.50;;;;;;4711146;30;20053;-89
2023/10/19 12:18:48;;;;;;;3.70;1.10;;;18.30;96.40;;;;;;4716429;30;20065;-83
2023/10/19 12:21:17;;;;;;;;;;;18.20;96.40;;;;;;4729569;30;20091;-87
2023/10/19 12:23:51;;;;;;;3.75;0.82;;;18.00;96.60;;;;;;4718852;30;20371;-84
2023/10/19 12:26:19;;;;;;;2.50;0.88;;;17.90;96.70;;;;;;4702692;30;20053;-83
2023/10/19 12:28:47;;;;;;;2.47;0.90;;;17.90;96.80;;;;;;4720290;30;20061;-83
2023/10/19 12:31:18;;;;;;;3.78;0.85;;;17.80;96.80;;;;;;4727282;30;20063;-86
2023/10/19 12:33:46;;;;;;;3.65;1.10;;;17.80;96.90;;;;;;4734910;30;20060;-86
2023/10/19 12:38:55;;;;;;;4.57;1.25;;;17.70;97.00;;;;;;4707568;30;20053;-81
2023/10/19 12:41:27;;;;;;;2.50;0.80;;;17.70;97.00;;;;;;4710191;30;20041;-82
2023/10/19 12:44:08;;;;;;;3.45;0.98;;;17.70;97.00;;;;;;4728396;30;20053;-85
2023/10/19 12:46:36;;;;;;;2.30;0.80;;;17.70;97.20;;;;;;4720880;30;20052;-84
2023/10/19 12:49:08;;;;;;;2.63;0.82;;;17.70;96.90;;;;;;4743807;30;20052;-82
2023/10/19 12:51:35;;;;;;;4.30;1.03;;;17.70;97.00;;;;;;4713641;30;20061;-86
2023/10/19 12:54:03;;;;;;;3.55;0.80;;;17.60;97.00;;;;;;4727993;30;20056;-84
2023/10/19 12:56:35;;;;;;;1.58;0.70;;;17.60;97.10;;;;;;4721951;30;20076;-82
2023/10/19 12:59:03;;;;;;;1.65;0.75;;;17.50;97.10;;;;;;4708230;30;20059;-88
2023/10/19 13:01:35;;;;;;;2.85;0.93;;;17.50;97.20;;;;;;4722994;30;20065;-82
2023/10/19 13:04:16;;;;;;;4.55;0.80;;;17.40;97.20;;;;;;4732562;30;20041;-82
2023/10/19 13:06:44;;;;;;;2.38;0.70;;;17.40;97.30;;;;;;4719507;30;20163;-83
2023/10/19 13:09:11;;;;;;;3.28;0.95;;;17.40;97.30;;;;;;4736907;30;20056;-81
2023/10/19 13:11:43;;;;;;;3.28;1.02;;;17.40;97.30;;;;;;4724869;30;20122;-81
2023/10/19 13:14:11;;;;;;;3.50;1.00;;;17.40;97.30;;;;;;4730448;30;20247;-81
2023/10/19 13:16:39;;;;;;;2.42;0.77;;;17.40;97.30;;;;;;4742940;30;20048;-82
2023/10/19 13:19:13;;;;;;;3.97;1.10;;;17.40;97.30;;;;;;4728819;30;20136;-80
2023/10/19 13:21:43;;;;;;;1.98;0.80;;;17.40;97.30;;;;;;4730284;30;20151;-82
2023/10/19 13:24:10;;;;;;;2.92;0.85;;;17.30;97.40;;;;;;4728447;30;20061;-81
2023/10/19 13:26:40;;;;;;;2.00;0.70;;;17.30;97.40;;;;;;4723825;30;20057;-82
2023/10/19 13:29:07;;;;;;;3.78;0.90;;;17.30;97.40;;;;;;4729792;30;20060;-86
2023/10/19 13:31:34;;;;;;;4.40;1.05;;;17.20;97.40;;;;;;4725856;30;20409;-81
2023/10/19 13:34:03;;;;;;;2.83;0.73;;;17.20;97.50;;;;;;4723775;30;20071;-81
2023/10/19 13:36:30;;;;;;;5.47;0.80;;;17.10;97.50;;;;;;4757760;30;20131;-80
2023/10/19 13:38:57;;;;;;;2.08;0.90;;;17.10;97.60;;;;;;4733674;30;20048;-82
2023/10/19 13:41:24;;;;;;;2.78;0.75;;;17.10;97.60;;;;;;4706578;30;20051;-82
2023/10/19 13:43:51;;;;;;;2.65;0.90;;;17.00;97.70;;;;;;4741912;30;20052;-81
2023/10/19 13:46:18;;;;;;;2.60;0.63;;;17.00;97.70;;;;;;4734789;30;20167;-81
2023/10/19 13:48:45;;;;;;;1.75;0.73;;;17.00;97.80;;;;;;4756580;30;20409;-81
2023/10/19 13:51:18;;;;;;;3.60;0.60;;;17.00;97.80;;;;;;4735694;30;20063;-81
2023/10/19 13:53:46;;;;;;;3.17;0.82;;;17.00;97.80;;;;;;4720248;30;20075;-81
2023/10/19 13:56:17;;;;;;;4.15;0.63;;;17.10;97.80;;;;;;4750870;30;20048;-81
2023/10/19 13:58:46;;;;;;;2.28;0.57;;;17.10;97.70;;;;;;4749513;30;20147;-80
2023/10/19 14:01:15;;;;;;;3.13;0.60;;;17.20;97.70;;;;;;4725363;30;20049;-82
2023/10/19 14:03:44;;;;;;;2.08;0.65;;;17.30;97.70;;;;;;4720980;30;20095;-82
2023/10/19 14:06:13;;;;;;;2.53;0.60;;;17.30;97.60;;;;;;4723075;30;20089;-83
2023/10/19 14:08:41;;;;;;;3.95;0.77;;;17.30;97.60;;;;;;4732100;30;20049;-83
2023/10/19 14:11:08;;;;;;;3.45;0.70;;;17.40;97.60;;;;;;4738934;30;20056;-82
2023/10/19 14:13:35;;;;;;;3.70;0.70;;;17.40;97.60;;;;;;4743583;30;20068;-82
2023/10/19 14:16:07;;;;;;;2.90;0.60;;;17.40;97.60;;;;;;4768382;29;20098;-81
2023/10/19 14:18:36;;;;;;;3.53;0.50;;;17.40;97.60;;;;;;4738189;30;20596;-83
2023/10/19 14:21:18;;;;;;;1.95;0.70;;;17.40;97.50;;;;;;4761403;30;20052;-81
2023/10/19 14:23:48;;;;;;;3.78;0.70;;;17.40;97.50;;;;;;4735295;30;20057;-82
2023/10/19 14:26:15;;;;;;;3.78;0.93;;;17.30;97.60;;;;;;4734445;30;20125;-83
2023/10/19 14:28:42;;;;;;;2.58;0.77;;;17.30;97.70;;;;;;4754262;30;20048;-83
2023/10/19 14:31:11;;;;;;;1.70;0.55;;;17.20;97.80;;;;;;4760967;30;20044;-83
2023/10/19 14:33:38;;;;;;;1.52;0.60;;;17.10;97.90;;;;;;4747247;30;20048;-84
2023/10/19 14:36:06;;;;;;;3.72;0.85;;;17.10;98.00;;;;;;4733594;30;20071;-83
2023/10/19 14:38:33;;;;;;;3.17;0.88;;;17.00;98.00;;;;;;4758459;30;20075;-83
2023/10/19 14:41:00;;;;;;;2.17;0.60;;;16.90;98.00;;;;;;4733913;30;20482;-81
2023/10/19 14:43:29;;;;;;;2.05;0.70;;;16.90;98.10;;;;;;4754608;30;20047;-82
2023/10/19 14:45:57;;;;;;;3.63;0.73;;;16.90;98.10;;;;;;4768077;30;20580;-81
2023/10/19 14:48:24;;;;;;;2.55;0.50;;;16.80;98.20;;;;;;4767912;30;20052;-84
2023/10/19 14:50:51;;;;;;;3.00;0.70;;;16.90;98.20;;;;;;4758304;30;20049;-81
2023/10/19 14:53:18;;;;;;;2.42;0.60;;;16.80;98.20;;;;;;4729309;30;20051;-82
2023/10/19 14:55:45;;;;;;;2.22;0.50;;;16.80;98.20;;;;;;4762776;30;20056;-83
2023/10/19 14:58:13;;;;;;;4.18;0.70;;;16.80;98.20;;;;;;4747812;30;20079;-82
2023/10/19 15:00:50;;;;;;;4.47;0.88;;;16.90;98.20;;;;;;4767904;30;20048;-83
2023/10/19 15:03:19;;;;;;;1.95;0.60;;;16.90;98.20;;;;;;4756008;30;20056;-83
2023/10/19 15:05:51;;;;;;;2.42;0.50;;;16.80;98.20;;;;;;4747038;30;20110;-84
2023/10/19 15:08:19;;;;;;;3.38;0.60;;;16.80;98.20;;;;;;4751619;30;20055;-84
2023/10/19 15:10:46;;;;;;;3.05;0.68;;;16.80;98.20;;;;;;4728174;30;20052;-82
2023/10/19 15:13:13;;;;;;;1.50;0.40;;;16.70;98.30;;;;;;4774195;30;20064;-85
2023/10/19 15:15:40;;;;;;;1.50;0.68;;;16.70;98.30;;;;;;4739099;30;20501;-81
2023/10/19 15:18:07;;;;;;;5.22;0.60;;;16.70;98.30;;;;;;4764150;30;20451;-83
2023/10/19 15:20:35;;;;;;;2.22;0.75;;;16.70;98.40;;;;;;4761794;30;20486;-85
2023/10/19 15:23:03;;;;;;;1.38;0.60;;;16.60;98.40;;;;;;4764304;30;20060;-82
2023/10/19 15:25:31;;;;;;;5.53;0.68;;;16.60;98.40;;;;;;4758271;30;21516;-83
2023/10/19 15:27:58;;;;;;;2.53;0.88;;;16.60;98.50;;;;;;4771251;30;20052;-85
2023/10/19 15:30:25;;;;;;;4.35;1.25;;;16.50;98.50;;;;;;4771658;30;20435;-84
2023/10/19 15:32:53;;;;;;;3.58;0.60;;;16.60;98.50;;;;;;4748458;30;20063;-87
2023/10/19 15:35:21;;;;;;;3.38;0.70;;;16.50;98.50;;;;;;4741700;30;20063;-88